Hauptseite
METAR-TAF:

METAR-TAF

Flughäfen :

Flughafen Niamey

Niamey, Niger

Breite: 13-29N, Länge: 002-10E, Höhe: 223 m

Beobachtung

Neuester Wetterbericht von vor 22 Minuten, um 11:00 UTC
Wind 8 kt aus Nord/Nordost, variierte zwischen Nord und Ost
Temperatur 30°C
Luftfeuchtigkeit 4%
Luftdruck 1015 hPa
Sichtweite 10 km oder mehr
keine Wolken unter 1500 m und keine Kumulonimbus oder Gewitterwolken

METAR: DRRN 221100Z 03008KT 010V080 CAVOK 30/M16 Q1015 NOSIG

Zeit: 12:22 (11:22 UTC)

Prognose

Neuester Wetterbericht von vor 6 Stunden und 22 Minuten, um 05:00 UTC
Gültige Prognose vom 22 um 06 UTC bis 23 um 12 UTC
Wind 8 kt aus Nord
Sichtweite: 6000 m
Zeitweise
vom 22 um 06 UTC bis 22 um 09 UTC
Sichtweite: 3500 m
verbreitet Staub
Zeitweise
vom 22 um 17 UTC bis 22 um 20 UTC
Sichtweite: 3500 m
verbreitet Staub

TAF: DRRN 220500Z 2206/2312 36008KT 6000 NSC TEMPO 2206/2209 3500 DU TEMPO 2217/2220 3500 DU

Wetterbeobachtungen und Prognosen von mehr als 4000 Flughäfen (METAR und TAF Bericht).

Die verfügbaren Stationen werden durch gelbe und rote Markierungen auf der Karte dargestellt.

Führen Sie die Maus auf sie, um den Namen der Station zu sehen.

Darauf klicken, um die Beobachtung von Wetterbeobachtungen und Prognosen zu sehen.

Um die Karte zu ändern : klicken Sie auf den grünen Tasten mit einem schwarzen Kreuz Zum Vergrößern, auf den grünen Button mit einem Gedankenstrich zu verkleinern, oder auf die grünen Pfeile für benachbarte Karten.


METAR-TAF: